createdAt,value
2019-06-15T00:01:45.099Z,14.06
2019-06-15T00:04:14.433Z,14.01
2019-06-15T00:06:43.805Z,13.99
2019-06-15T00:09:13.164Z,13.96
2019-06-15T00:11:42.622Z,13.93
2019-06-15T00:14:11.950Z,13.91
2019-06-15T00:16:41.361Z,13.91
2019-06-15T00:19:10.720Z,13.87
2019-06-15T00:21:40.116Z,13.82
2019-06-15T00:24:09.522Z,13.79
2019-06-15T00:26:38.915Z,13.68
2019-06-15T00:29:08.250Z,13.67
2019-06-15T00:31:37.683Z,13.66
2019-06-15T00:34:07.078Z,13.66
2019-06-15T00:36:36.444Z,13.62
2019-06-15T00:39:45.991Z,13.59
2019-06-15T00:42:15.347Z,13.54
2019-06-15T00:44:44.752Z,13.50
2019-06-15T00:47:14.184Z,13.47
2019-06-15T00:49:43.574Z,13.45
2019-06-15T00:52:12.920Z,13.43
2019-06-15T00:54:50.455Z,13.42
2019-06-15T00:57:13.353Z,13.42
2019-06-15T00:59:42.711Z,13.43
2019-06-15T01:02:12.057Z,13.43
2019-06-15T01:04:41.474Z,13.41
2019-06-15T01:07:10.860Z,13.38
2019-06-15T01:09:40.221Z,13.37
2019-06-15T01:12:09.712Z,13.38
2019-06-15T01:14:39.128Z,13.38
2019-06-15T01:17:08.449Z,13.38
2019-06-15T01:19:37.831Z,13.37
2019-06-15T01:22:07.206Z,13.34
2019-06-15T01:24:36.621Z,13.31
2019-06-15T01:27:06.023Z,13.24
2019-06-15T01:29:35.373Z,13.19
2019-06-15T01:32:04.741Z,13.14
2019-06-15T01:34:34.088Z,13.09
2019-06-15T01:37:03.476Z,13.05
2019-06-15T01:39:32.840Z,13.01
2019-06-15T01:42:02.238Z,12.98
2019-06-15T01:44:31.582Z,12.96
2019-06-15T01:47:00.968Z,12.92
2019-06-15T01:49:30.355Z,12.87
2019-06-15T01:51:59.746Z,12.83
2019-06-15T01:54:29.105Z,12.79
2019-06-15T01:56:58.541Z,12.80
2019-06-15T01:59:27.906Z,12.78
2019-06-15T02:01:57.261Z,12.76
2019-06-15T02:04:26.674Z,12.74
2019-06-15T02:06:56.048Z,12.72
2019-06-15T02:09:25.469Z,12.69
2019-06-15T02:11:54.857Z,12.66
2019-06-15T02:14:24.195Z,12.63
2019-06-15T02:16:53.570Z,12.63
2019-06-15T02:19:22.931Z,12.62
2019-06-15T02:21:52.275Z,12.63
2019-06-15T02:24:21.677Z,12.63
2019-06-15T02:26:51.046Z,12.61
2019-06-15T02:29:20.528Z,12.64
2019-06-15T02:31:49.915Z,12.71
2019-06-15T02:34:19.366Z,12.79
2019-06-15T02:36:48.709Z,12.85
2019-06-15T02:39:18.177Z,12.92
2019-06-15T02:41:47.561Z,12.98
2019-06-15T02:44:17.158Z,13.06
2019-06-15T02:46:46.744Z,13.11
2019-06-15T02:49:16.093Z,13.16
2019-06-15T02:51:45.507Z,13.22
2019-06-15T02:54:14.880Z,13.28
2019-06-15T02:56:44.209Z,13.31
2019-06-15T02:59:13.612Z,13.37
2019-06-15T03:01:42.986Z,13.41
2019-06-15T03:04:12.452Z,13.46
2019-06-15T03:12:11.448Z,13.71
2019-06-15T03:14:41.153Z,13.76
2019-06-15T03:17:10.491Z,13.56
2019-06-15T03:19:39.855Z,13.90
2019-06-15T03:22:09.261Z,13.96
2019-06-15T03:24:38.632Z,14.06
2019-06-15T03:27:07.968Z,14.15
2019-06-15T03:29:37.339Z,14.22
2019-06-15T03:32:06.692Z,14.26
2019-06-15T03:34:36.027Z,14.29
2019-06-15T03:37:05.404Z,14.33
2019-06-15T03:39:34.818Z,14.37
2019-06-15T03:42:04.297Z,14.42
2019-06-15T03:44:33.662Z,14.49
2019-06-15T03:47:03.137Z,14.56
2019-06-15T03:49:32.530Z,14.64
2019-06-15T03:52:01.890Z,14.71
2019-06-15T03:54:31.235Z,14.78
2019-06-15T03:57:00.580Z,14.88
2019-06-15T03:59:29.947Z,14.94
2019-06-15T04:01:59.368Z,14.99
2019-06-15T04:04:28.691Z,15.05
2019-06-15T04:06:58.048Z,15.15
2019-06-15T04:09:27.477Z,15.19
2019-06-15T04:11:56.850Z,15.23
2019-06-15T04:14:26.249Z,15.28
2019-06-15T04:16:55.629Z,15.19
2019-06-15T04:19:24.987Z,15.37
2019-06-15T04:24:29.027Z,15.47
2019-06-15T04:26:58.390Z,15.51
2019-06-15T04:29:27.740Z,15.52
2019-06-15T04:31:57.133Z,15.53
2019-06-15T04:34:26.561Z,15.57
2019-06-15T04:36:55.936Z,15.64
2019-06-15T04:39:25.332Z,15.73
2019-06-15T04:41:54.671Z,15.81
2019-06-15T04:44:24.047Z,15.90
2019-06-15T04:46:53.442Z,16.00
2019-06-15T04:49:22.817Z,16.05
2019-06-15T04:51:52.232Z,16.12
2019-06-15T04:54:21.605Z,16.19
2019-06-15T04:56:51.448Z,16.24
2019-06-15T04:59:22.200Z,16.28
2019-06-15T05:01:51.556Z,16.33
2019-06-15T05:04:20.911Z,16.35
2019-06-15T05:06:50.261Z,16.42
2019-06-15T05:09:19.616Z,16.51
2019-06-15T05:11:48.976Z,16.59
2019-06-15T05:14:18.357Z,16.65
2019-06-15T05:16:47.682Z,16.71
2019-06-15T05:19:17.129Z,16.80
2019-06-15T05:21:46.538Z,16.93
2019-06-15T05:24:15.978Z,17.06
2019-06-15T05:29:33.639Z,17.25
2019-06-15T05:34:51.343Z,17.36
2019-06-15T05:37:20.813Z,17.38
2019-06-15T05:39:50.190Z,17.43
2019-06-15T05:42:19.545Z,17.48
2019-06-15T05:44:48.853Z,17.51
2019-06-15T05:47:18.307Z,17.57
2019-06-15T05:49:47.639Z,17.62
2019-06-15T05:52:17.034Z,17.68
2019-06-15T05:54:46.411Z,17.72
2019-06-15T05:57:21.619Z,17.75
2019-06-15T05:59:46.928Z,17.80
2019-06-15T06:02:16.398Z,17.86
2019-06-15T06:04:45.793Z,17.97
2019-06-15T06:07:34.194Z,18.08
2019-06-15T06:12:38.921Z,18.42
2019-06-15T06:15:08.430Z,18.66
2019-06-15T06:17:37.757Z,18.83
2019-06-15T06:20:27.522Z,18.97
2019-06-15T06:22:56.920Z,19.16
2019-06-15T06:25:26.260Z,19.34
2019-06-15T06:27:55.656Z,19.46
2019-06-15T06:30:25.022Z,19.64
2019-06-15T06:32:54.457Z,19.76
2019-06-15T06:35:23.825Z,19.92
2019-06-15T06:37:53.140Z,20.11
2019-06-15T06:40:22.840Z,20.15
2019-06-15T06:42:52.207Z,20.23
2019-06-15T06:45:21.777Z,20.31
2019-06-15T06:47:51.144Z,20.44
2019-06-15T06:50:20.749Z,20.63
2019-06-15T06:52:50.255Z,20.79
2019-06-15T06:55:40.026Z,20.87
2019-06-15T06:58:09.377Z,21.00
2019-06-15T07:00:38.705Z,21.20
2019-06-15T07:03:26.972Z,21.43
2019-06-15T07:05:56.380Z,21.57
2019-06-15T07:11:14.100Z,21.77
2019-06-15T07:13:43.473Z,21.92
2019-06-15T07:16:12.871Z,22.08
2019-06-15T07:18:42.268Z,22.23
2019-06-15T07:21:11.653Z,22.41
2019-06-15T07:23:41.075Z,22.63
2019-06-15T07:26:10.391Z,22.86
2019-06-15T07:28:39.831Z,23.03
2019-06-15T07:31:09.290Z,23.14
2019-06-15T07:33:38.670Z,23.16
2019-06-15T07:36:08.154Z,23.12
2019-06-15T07:38:37.504Z,23.10
2019-06-15T07:41:06.845Z,23.13
2019-06-15T07:43:36.231Z,23.14
2019-06-15T07:46:05.643Z,23.12
2019-06-15T07:48:35.020Z,23.17
2019-06-15T07:51:04.387Z,23.21
2019-06-15T07:56:33.557Z,23.50
2019-06-15T07:59:02.908Z,23.70
2019-06-15T08:01:32.254Z,23.83
2019-06-15T08:04:01.638Z,23.93
2019-06-15T08:09:19.392Z,23.90
2019-06-15T08:11:48.774Z,23.82
2019-06-15T08:14:18.156Z,23.90
2019-06-15T08:16:47.745Z,23.92
2019-06-15T08:19:17.211Z,24.14
2019-06-15T08:21:46.690Z,24.31
2019-06-15T08:24:16.219Z,24.45
2019-06-15T08:26:45.579Z,24.57
2019-06-15T08:29:15.128Z,24.54
2019-06-15T08:31:44.549Z,24.44
2019-06-15T08:34:13.946Z,24.29
2019-06-15T08:36:43.260Z,24.24
2019-06-15T08:39:12.631Z,24.26
2019-06-15T08:41:41.977Z,24.37
2019-06-15T08:44:11.347Z,24.48
2019-06-15T08:46:40.691Z,24.56
2019-06-15T08:49:09.984Z,24.63
2019-06-15T08:51:58.244Z,24.77
2019-06-15T08:54:27.638Z,24.91
2019-06-15T08:56:56.946Z,24.96
2019-06-15T08:59:26.291Z,25.03
2019-06-15T09:01:55.586Z,25.14
2019-06-15T09:04:24.887Z,25.29
2019-06-15T09:06:54.194Z,25.40
2019-06-15T09:09:23.499Z,25.45
2019-06-15T09:11:52.830Z,25.59
2019-06-15T09:14:22.161Z,25.75
2019-06-15T09:16:51.472Z,25.61
2019-06-15T09:19:20.817Z,25.85
2019-06-15T09:21:50.114Z,25.92
2019-06-15T09:24:19.427Z,26.10
2019-06-15T09:26:48.754Z,26.26
2019-06-15T09:29:18.091Z,26.24
2019-06-15T09:31:47.394Z,26.21
2019-06-15T09:34:19.356Z,26.38
2019-06-15T09:36:47.779Z,26.43
2019-06-15T09:39:17.155Z,26.45
2019-06-15T09:41:46.481Z,26.64
2019-06-15T09:44:15.821Z,26.82
2019-06-15T09:46:45.112Z,26.86
2019-06-15T09:49:14.417Z,26.81
2019-06-15T09:51:43.713Z,26.80
2019-06-15T09:54:32.089Z,26.84
2019-06-15T09:57:01.405Z,26.94
2019-06-15T09:59:30.709Z,27.06
2019-06-15T10:02:00.056Z,27.10
2019-06-15T10:04:29.402Z,27.26
2019-06-15T10:06:58.788Z,27.43
2019-06-15T10:09:28.157Z,27.49
2019-06-15T10:11:57.424Z,27.55
2019-06-15T10:14:26.707Z,27.58
2019-06-15T10:16:56.054Z,27.50
2019-06-15T10:19:25.409Z,27.52
2019-06-15T10:21:54.801Z,27.74
2019-06-15T10:24:43.161Z,27.87
2019-06-15T10:27:12.468Z,27.88
2019-06-15T10:29:42.435Z,28.05
2019-06-15T10:32:12.810Z,28.19
2019-06-15T10:34:42.150Z,28.38
2019-06-15T10:37:11.462Z,28.46
2019-06-15T10:39:40.790Z,28.57
2019-06-15T10:42:29.032Z,28.66
2019-06-15T10:44:58.341Z,28.59
2019-06-15T10:47:27.661Z,28.63
2019-06-15T10:52:31.587Z,28.21
2019-06-15T10:55:00.910Z,28.13
2019-06-15T10:57:30.580Z,28.09
2019-06-15T10:59:59.908Z,28.12
2019-06-15T11:02:29.195Z,28.14
2019-06-15T11:04:58.488Z,28.11
2019-06-15T11:07:27.795Z,28.22
2019-06-15T11:09:57.050Z,28.30
2019-06-15T11:12:26.329Z,28.09
2019-06-15T11:14:55.645Z,28.18
2019-06-15T11:17:25.029Z,28.21
2019-06-15T11:19:54.275Z,28.32
2019-06-15T11:22:42.483Z,28.37
2019-06-15T11:25:11.740Z,28.57
2019-06-15T11:27:41.029Z,28.70
2019-06-15T11:33:05.587Z,28.80
2019-06-15T11:35:34.854Z,28.88
2019-06-15T11:38:23.039Z,28.95
2019-06-15T11:40:52.335Z,29.00
2019-06-15T11:43:21.633Z,29.10
2019-06-15T11:45:50.918Z,28.97
2019-06-15T11:48:39.080Z,28.96
2019-06-15T11:51:08.343Z,29.10
2019-06-15T11:53:37.608Z,29.26
2019-06-15T11:56:06.914Z,29.38
2019-06-15T11:58:47.842Z,29.45
2019-06-15T12:01:18.969Z,29.53
2019-06-15T12:03:48.122Z,29.66
2019-06-15T12:06:17.393Z,29.55
2019-06-15T12:08:46.746Z,29.39
2019-06-15T12:11:16.054Z,29.54
2019-06-15T12:16:20.338Z,29.66
2019-06-15T12:18:49.620Z,29.63
2019-06-15T12:21:18.891Z,29.65
2019-06-15T12:26:36.402Z,29.46
2019-06-15T12:29:07.784Z,29.47
2019-06-15T12:31:36.836Z,29.54
2019-06-15T12:34:06.133Z,29.51
2019-06-15T12:36:35.423Z,29.48
2019-06-15T12:39:44.036Z,29.42
2019-06-15T12:42:13.295Z,29.50
2019-06-15T12:45:01.661Z,29.51
2019-06-15T12:47:30.935Z,29.51
2019-06-15T12:50:19.098Z,29.44
2019-06-15T12:52:48.366Z,29.37
2019-06-15T12:55:17.621Z,29.33
2019-06-15T12:57:46.909Z,29.38
2019-06-15T13:05:58.085Z,29.13
2019-06-15T13:08:27.377Z,29.24
2019-06-15T13:10:56.701Z,29.20
2019-06-15T13:13:25.971Z,28.77
2019-06-15T13:15:55.256Z,28.81
2019-06-15T13:18:24.526Z,28.89
2019-06-15T13:20:53.809Z,28.80
2019-06-15T13:23:23.061Z,28.69
2019-06-15T13:28:27.519Z,28.58
2019-06-15T13:30:56.803Z,28.36
2019-06-15T13:33:26.091Z,28.29
2019-06-15T13:39:02.733Z,28.43
2019-06-15T13:41:32.021Z,28.32
2019-06-15T13:44:20.189Z,28.32
2019-06-15T13:46:49.479Z,28.28
2019-06-15T13:51:53.489Z,28.22
2019-06-15T13:57:11.074Z,28.17
2019-06-15T13:59:40.343Z,27.99
2019-06-15T14:02:09.625Z,27.96
2019-06-15T14:04:58.018Z,28.10
2019-06-15T14:10:22.374Z,27.93
2019-06-15T14:12:51.669Z,27.88
2019-06-15T14:18:09.260Z,27.63
2019-06-15T14:20:38.627Z,27.53
2019-06-15T14:23:07.896Z,27.47
2019-06-15T14:25:37.178Z,27.57
2019-06-15T14:33:15.704Z,27.50
2019-06-15T14:38:33.328Z,27.39
2019-06-15T14:41:02.616Z,27.38
2019-06-15T14:43:31.865Z,27.27
2019-06-15T14:46:01.138Z,27.31
2019-06-15T14:48:30.409Z,27.03
2019-06-15T14:50:59.739Z,27.29
2019-06-15T14:53:29.019Z,27.18
2019-06-15T14:56:17.182Z,27.18
2019-06-15T14:58:46.573Z,27.25
2019-06-15T15:01:16.782Z,27.31
2019-06-15T15:03:47.345Z,27.32
2019-06-15T15:06:17.871Z,27.14
2019-06-15T15:08:56.261Z,26.92
2019-06-15T15:11:46.117Z,26.89
2019-06-15T15:14:17.352Z,26.84
2019-06-15T15:16:46.816Z,26.70
2019-06-15T15:19:16.635Z,26.60
2019-06-15T15:21:47.066Z,26.50
2019-06-15T15:24:16.837Z,26.32
2019-06-15T15:26:47.421Z,26.21
2019-06-15T15:29:16.701Z,26.12
2019-06-15T15:31:46.669Z,26.00
2019-06-15T15:34:17.491Z,25.84
2019-06-15T15:36:47.962Z,25.68
2019-06-15T15:42:11.392Z,25.39
2019-06-15T15:44:40.665Z,25.08
2019-06-15T15:47:09.941Z,25.03
2019-06-15T15:49:39.219Z,24.97
2019-06-15T15:52:27.417Z,24.79
2019-06-15T15:54:56.762Z,24.65
2019-06-15T15:57:26.820Z,24.47
2019-06-15T15:59:57.023Z,24.35
2019-06-15T16:02:35.415Z,24.32
2019-06-15T16:04:57.693Z,24.22
2019-06-15T16:07:28.016Z,24.13
2019-06-15T16:09:58.078Z,23.91
2019-06-15T16:12:27.366Z,23.83
2019-06-15T16:14:56.641Z,23.70
2019-06-15T16:17:46.466Z,23.72
2019-06-15T16:23:17.502Z,23.57
2019-06-15T16:26:05.662Z,23.51
2019-06-15T16:28:36.596Z,23.45
2019-06-15T16:31:13.002Z,23.42
2019-06-15T16:33:37.353Z,23.39
2019-06-15T16:36:08.004Z,23.37
2019-06-15T16:38:37.274Z,23.34
2019-06-15T16:41:06.552Z,23.30
2019-06-15T16:43:37.036Z,23.19
2019-06-15T16:46:26.429Z,23.10
2019-06-15T16:48:56.949Z,23.00
2019-06-15T16:51:46.659Z,22.94
2019-06-15T16:54:16.704Z,22.83
2019-06-15T16:59:22.261Z,22.82
2019-06-15T17:01:51.585Z,22.82
2019-06-15T17:04:20.913Z,22.82
2019-06-15T17:06:50.165Z,22.83
2019-06-15T17:14:28.790Z,22.78
2019-06-15T17:16:58.155Z,22.78
2019-06-15T17:19:27.553Z,22.77
2019-06-15T17:22:01.067Z,22.75
2019-06-15T17:24:30.533Z,22.74
2019-06-15T17:26:59.804Z,22.72
2019-06-15T17:29:29.089Z,22.69
2019-06-15T17:31:58.369Z,22.62
2019-06-15T17:34:27.669Z,22.67
2019-06-15T17:36:57.483Z,22.64
2019-06-15T17:39:29.631Z,22.61
2019-06-15T17:41:59.119Z,22.59
2019-06-15T17:44:47.464Z,22.54
2019-06-15T17:47:17.064Z,22.51
2019-06-15T17:49:47.798Z,22.43
2019-06-15T17:52:19.118Z,22.33
2019-06-15T17:54:48.407Z,22.26
2019-06-15T17:57:36.610Z,22.21
2019-06-15T18:05:47.674Z,21.92
2019-06-15T18:08:16.761Z,21.84
2019-06-15T18:10:48.035Z,21.79
2019-06-15T18:13:37.369Z,21.77
2019-06-15T18:16:06.765Z,21.71
2019-06-15T18:18:37.121Z,21.62
2019-06-15T18:21:07.131Z,21.63
2019-06-15T18:23:37.014Z,21.62
2019-06-15T18:26:07.506Z,21.57
2019-06-15T18:31:26.993Z,21.44
2019-06-15T18:34:08.287Z,21.40
2019-06-15T18:36:27.511Z,21.36
2019-06-15T18:38:57.570Z,21.31
2019-06-15T18:41:27.817Z,21.24
2019-06-15T18:43:59.896Z,21.18
2019-06-15T18:46:29.252Z,21.09
2019-06-15T18:48:58.590Z,21.10
2019-06-15T18:51:27.948Z,21.09
2019-06-15T18:53:57.317Z,21.09
2019-06-15T18:56:27.082Z,21.07
2019-06-15T18:58:57.592Z,21.07
2019-06-15T19:01:27.196Z,21.09
2019-06-15T19:03:57.871Z,21.07
2019-06-15T19:09:16.289Z,21.02
2019-06-15T19:11:46.468Z,21.01
2019-06-15T19:14:16.589Z,20.99
2019-06-15T19:16:47.232Z,20.95
2019-06-15T19:19:17.800Z,20.90
2019-06-15T19:22:06.501Z,20.88
2019-06-15T19:24:37.132Z,20.86
2019-06-15T19:27:25.943Z,20.84
2019-06-15T19:35:11.612Z,20.77
2019-06-15T19:37:40.900Z,20.76
2019-06-15T19:40:49.536Z,20.74
2019-06-15T19:43:18.916Z,20.74
2019-06-15T19:45:48.209Z,20.69
2019-06-15T19:48:17.476Z,20.66
2019-06-15T19:50:46.779Z,20.64
2019-06-15T19:56:06.647Z,20.61
2019-06-15T19:58:35.357Z,20.60
2019-06-15T20:01:06.791Z,20.58
2019-06-15T20:03:36.255Z,20.55
2019-06-15T20:06:06.887Z,20.53
2019-06-15T20:08:36.482Z,20.51
2019-06-15T20:11:07.473Z,20.50
2019-06-15T20:13:38.228Z,20.49
2019-06-15T20:16:08.028Z,20.44
2019-06-15T20:18:38.615Z,20.42
2019-06-15T20:21:07.917Z,20.41
2019-06-15T20:23:37.719Z,20.38
2019-06-15T20:26:08.281Z,20.38
2019-06-15T20:28:37.584Z,20.36
2019-06-15T20:31:06.941Z,20.35
2019-06-15T20:33:36.922Z,20.31
2019-06-15T20:36:07.270Z,20.29
2019-06-15T20:38:36.638Z,20.25
2019-06-15T20:41:07.329Z,20.26
2019-06-15T20:43:36.911Z,20.25
2019-06-15T20:48:40.762Z,19.87
2019-06-15T20:51:10.457Z,20.16
2019-06-15T20:53:41.103Z,20.15
2019-06-15T20:56:29.268Z,20.12
2019-06-15T20:58:58.521Z,20.08
2019-06-15T21:01:27.810Z,20.04
2019-06-15T21:03:57.105Z,20.01
2019-06-15T21:06:26.496Z,20.00
2019-06-15T21:11:30.479Z,19.96
2019-06-15T21:13:59.742Z,19.93
2019-06-15T21:16:29.024Z,19.91
2019-06-15T21:18:58.248Z,19.93
2019-06-15T21:21:27.780Z,19.93
2019-06-15T21:23:58.557Z,19.91
2019-06-15T21:26:27.873Z,19.89
2019-06-15T21:28:57.156Z,19.86
2019-06-15T21:34:14.747Z,19.83
2019-06-15T21:36:46.016Z,19.81
2019-06-15T21:39:15.057Z,19.78
2019-06-15T21:41:46.263Z,19.76
2019-06-15T21:44:16.804Z,19.77
2019-06-15T21:46:46.855Z,19.74
2019-06-15T21:49:17.297Z,19.74
2019-06-15T21:51:47.320Z,19.73
2019-06-15T21:54:17.566Z,19.74
2019-06-15T21:56:46.834Z,19.69
2019-06-15T21:59:16.582Z,19.67
2019-06-15T22:01:47.139Z,19.66
2019-06-15T22:04:16.733Z,19.62
2019-06-15T22:06:47.788Z,19.60
2019-06-15T22:09:20.947Z,19.59
2019-06-15T22:12:08.359Z,19.54
2019-06-15T22:14:37.641Z,19.52
2019-06-15T22:17:06.940Z,19.50
2019-06-15T22:19:36.891Z,19.50
2019-06-15T22:22:07.771Z,19.50
2019-06-15T22:24:38.187Z,19.48
2019-06-15T22:27:07.462Z,19.47
2019-06-15T22:29:36.711Z,19.46
2019-06-15T22:32:06.917Z,19.44
2019-06-15T22:34:37.142Z,19.41
2019-06-15T22:37:26.337Z,19.39
2019-06-15T22:39:56.485Z,19.36
2019-06-15T22:42:25.760Z,19.34
2019-06-15T22:44:56.827Z,19.31
2019-06-15T22:47:27.049Z,19.31
2019-06-15T22:49:57.069Z,19.30
2019-06-15T22:52:26.535Z,19.29
2019-06-15T22:54:57.336Z,19.24
2019-06-15T22:57:26.625Z,19.23
2019-06-15T22:59:56.756Z,19.21
2019-06-15T23:02:26.911Z,19.18
2019-06-15T23:04:56.592Z,19.14
2019-06-15T23:07:27.209Z,19.10
2019-06-15T23:09:56.495Z,19.08
2019-06-15T23:12:25.753Z,19.06
2019-06-15T23:14:55.974Z,19.03
2019-06-15T23:17:26.024Z,19.02
2019-06-15T23:22:30.297Z,19.03
2019-06-15T23:24:59.566Z,19.01
2019-06-15T23:27:28.833Z,19.00
2019-06-15T23:29:58.105Z,18.99
2019-06-15T23:32:27.419Z,18.96
2019-06-15T23:34:56.708Z,18.94
2019-06-15T23:37:26.657Z,18.94
2019-06-15T23:40:16.305Z,18.93
2019-06-15T23:42:46.101Z,18.89
2019-06-15T23:48:04.905Z,18.85
2019-06-15T23:53:22.462Z,18.82
2019-06-15T23:55:51.707Z,18.77
2019-06-15T23:58:21.014Z,18.77
